Bom Jesus do Tocantins, Brazil
Current Conditions -  °F | °C
As of 3:00 PM on Sunday 25 Jan 2015 (Local Time) from SBPJ Reporting Station
Thunderstorm Thunderstorm  
Wind Chill: 81°   Ceiling: Unl
Heat Index: 85°   Visibility: 5mi
Dew Point: 72°   Wind: 12mph
Humidity: 74%   Direction: 180°S
Pressure: 29.88"   Gusts: NA
Location:  8.97°S, 48.17°W
Report Text: SBPJ 251800Z 18010KT 8000 -TSRA SCT015 FEW030CB SCT100 27/22 Q1012
Loading
Personal Weather Stations






























Interactive Weather Map New forecast layout! Learn more

10-Day Weather Forecast

Advertisements
Track Severe Weather on mobile